KAXV/AXV METAR and TAF weather

Enter ICAO airport designator
Station Type Date Time Source
KAXV METAR 2018/07/20 14:35 UTC NOAA

KAXV 201435Z AUTO 17012KT 10SM CLR 22/22 A2990 RMK AO2 LTG DSNT SE THRU W


Station Type Date Time Source
KAXV Decoded METAR 2018/07/20 14:35 UTC NOAA

Station name not available
Jul 20, 2018 - 10:35 AM EDT / 2018.07.20 1435 UTC
Wind: from the S (170 degrees) at 14 MPH (12 KT):0
Visibility: 10 mile(s):0
Sky conditions: clear
Weather: Lightning observed
Temperature: 71 F (22 C)
Dew Point: 71 F (22 C)
Relative Humidity: 100%
Pressure (altimeter): 29.9 in. Hg (1012 hPa)
ob: KAXV 201435Z AUTO 17012KT 10SM CLR 22/22 A2990 RMK AO2 LTG DSNT SE THRU W
cycle: 14

Station Type Date Time Source
KAXV TAF UTC NOAA

Error!


Example: see airport list